Time;durP1;ratioP1;P1;durP2;ratioP2;P2;SDS_P1;SDS_P2;PMS_P1;PMS_P2;Temp;Humidity;BMP_temperature;BMP_pressure;BME280_temperature;BME280_humidity;BME280_pressure;Samples;Min_cycle;Max_cycle;Signal;HPM_P1;HPM_P2
2021/06/19 00:02:22;;;;;;;6.25;5.38;;;20.60;99.50;;;;;;4820292;29;20041;-93
2021/06/19 00:04:49;;;;;;;7.15;5.55;;;20.60;99.60;;;;;;4824333;29;20046;-92
2021/06/19 00:07:16;;;;;;;6.07;5.10;;;20.60;99.60;;;;;;4830627;29;20034;-93
2021/06/19 00:09:51;;;;;;;5.80;4.72;;;20.60;99.90;;;;;;4825887;29;20057;-91
2021/06/19 00:12:25;;;;;;;8.48;5.88;;;20.60;99.80;;;;;;4810673;29;20038;-92
2021/06/19 00:14:57;;;;;;;6.63;5.03;;;20.50;99.80;;;;;;4796524;29;20038;-93
2021/06/19 00:17:32;;;;;;;7.97;6.40;;;20.60;99.80;;;;;;4812559;29;20045;-92
2021/06/19 00:19:59;;;;;;;8.50;5.13;;;20.50;99.90;;;;;;4811506;29;20046;-88
2021/06/19 00:22:30;;;;;;;8.27;6.20;;;20.50;99.90;;;;;;4817034;29;20049;-87
2021/06/19 00:24:56;;;;;;;9.70;6.75;;;20.50;99.90;;;;;;4832281;29;20046;-86
2021/06/19 00:28:09;;;;;;;;;;;;;;;;;;;;;
2021/06/19 00:30:44;;;;;;;8.13;5.85;;;20.50;99.90;;;;;;4832384;29;20053;-87
2021/06/19 00:33:15;;;;;;;9.32;6.53;;;20.40;99.90;;;;;;4802642;29;20038;-88
2021/06/19 00:36:04;;;;;;;6.85;6.15;;;20.50;99.90;;;;;;4812387;29;20034;-92
2021/06/19 00:38:43;;;;;;;9.45;6.53;;;20.40;99.90;;;;;;4809957;29;20046;-89
2021/06/19 00:41:10;;;;;;;7.55;6.70;;;20.40;99.90;;;;;;4802989;29;20055;-88
2021/06/19 00:43:37;;;;;;;9.95;6.57;;;20.40;99.90;;;;;;4818563;29;20049;-83
2021/06/19 00:46:07;;;;;;;6.90;6.20;;;20.40;99.90;;;;;;4805415;29;20053;-88
2021/06/19 00:48:34;;;;;;;9.13;7.82;;;20.40;99.90;;;;;;4821394;29;20053;-84
2021/06/19 00:51:00;;;;;;;7.75;6.53;;;20.40;99.90;;;;;;4802394;29;20046;-88
2021/06/19 00:53:27;;;;;;;7.53;6.82;;;20.40;99.90;;;;;;4816531;29;20046;-87
2021/06/19 00:55:56;;;;;;;7.88;6.95;;;20.30;99.90;;;;;;4806576;29;20058;-85
2021/06/19 00:58:26;;;;;;;11.43;7.65;;;20.30;99.90;;;;;;4807514;29;20504;-86
2021/06/19 01:00:52;;;;;;;7.90;7.07;;;20.20;99.90;;;;;;4817219;29;20049;-86
2021/06/19 01:03:19;;;;;;;9.05;7.22;;;20.30;99.90;;;;;;4830616;29;20050;-86
2021/06/19 01:05:46;;;;;;;7.22;6.53;;;20.20;99.90;;;;;;4800585;29;20046;-86
2021/06/19 01:08:12;;;;;;;8.13;7.32;;;20.30;99.90;;;;;;4800959;29;20521;-86
2021/06/19 01:10:39;;;;;;;8.25;6.63;;;20.20;99.90;;;;;;4831968;29;20517;-86
2021/06/19 01:13:06;;;;;;;7.50;6.40;;;20.20;99.90;;;;;;4820010;29;20046;-86
2021/06/19 01:15:33;;;;;;;9.70;7.72;;;20.20;99.90;;;;;;4816813;29;20041;-85
2021/06/19 01:17:59;;;;;;;7.88;7.07;;;20.20;99.90;;;;;;4801179;29;20046;-85
2021/06/19 01:20:26;;;;;;;8.02;7.32;;;20.20;99.90;;;;;;4816253;29;20045;-85
2021/06/19 01:22:56;;;;;;;12.07;8.55;;;20.20;99.90;;;;;;4788267;29;20069;-85
2021/06/19 01:25:29;;;;;;;9.48;8.43;;;20.10;99.90;;;;;;4816542;29;20060;-87
2021/06/19 01:27:57;;;;;;;10.23;7.85;;;20.10;99.90;;;;;;4815355;29;20052;-85
2021/06/19 01:30:26;;;;;;;8.43;7.63;;;20.10;99.90;;;;;;4816558;29;20065;-85
2021/06/19 01:32:54;;;;;;;9.02;8.13;;;20.00;99.90;;;;;;4831780;29;20049;-84
2021/06/19 01:35:21;;;;;;;9.95;8.48;;;20.10;99.90;;;;;;4801986;29;20160;-85
2021/06/19 01:37:51;;;;;;;9.00;8.10;;;20.10;99.90;;;;;;4815625;29;20046;-85
2021/06/19 01:40:21;;;;;;;12.98;8.68;;;20.10;99.90;;;;;;4831444;29;20526;-85
2021/06/19 01:42:50;;;;;;;9.40;7.30;;;20.10;99.90;;;;;;4832416;29;20053;-91
2021/06/19 01:45:28;;;;;;;8.02;6.50;;;20.10;99.90;;;;;;4809348;29;20050;-91
2021/06/19 01:47:59;;;;;;;6.47;5.38;;;20.10;99.90;;;;;;4824895;29;20065;-91
2021/06/19 01:50:26;;;;;;;5.00;4.50;;;20.10;99.90;;;;;;4826041;29;20042;-92
2021/06/19 01:52:53;;;;;;;5.07;3.78;;;20.10;99.90;;;;;;4809441;29;20034;-92
2021/06/19 01:55:21;;;;;;;3.47;2.85;;;20.00;99.90;;;;;;4809785;29;20056;-91
2021/06/19 01:57:50;;;;;;;3.60;2.55;;;20.00;99.90;;;;;;4823897;29;20038;-91
2021/06/19 02:00:20;;;;;;;2.90;1.95;;;20.10;99.90;;;;;;4805923;29;20506;-92
2021/06/19 02:02:47;;;;;;;1.63;1.30;;;20.10;99.90;;;;;;4809212;29;20052;-91
2021/06/19 02:05:15;;;;;;;2.20;1.80;;;20.00;99.90;;;;;;4808728;29;20512;-90
2021/06/19 02:08:04;;;;;;;1.80;1.38;;;20.10;99.90;;;;;;4822889;29;20056;-91
2021/06/19 02:10:36;;;;;;;2.30;1.42;;;20.10;99.90;;;;;;4807157;29;20518;-91
2021/06/19 02:13:07;;;;;;;2.20;1.00;;;20.10;99.90;;;;;;4809605;29;20041;-91
2021/06/19 02:15:36;;;;;;;1.67;1.20;;;20.10;99.90;;;;;;4823999;29;20037;-91
2021/06/19 02:18:03;;;;;;;2.28;1.10;;;20.10;99.90;;;;;;4816812;29;20041;-91
2021/06/19 02:20:30;;;;;;;2.20;1.02;;;20.10;99.90;;;;;;4823510;29;20057;-91
2021/06/19 02:22:57;;;;;;;1.60;1.38;;;20.10;99.90;;;;;;4824462;29;20058;-92
2021/06/19 02:25:27;;;;;;;1.65;1.10;;;20.10;99.90;;;;;;4809043;29;20049;-91
2021/06/19 02:27:59;;;;;;;4.78;1.30;;;20.10;99.90;;;;;;4822442;29;20053;-92
2021/06/19 02:30:26;;;;;;;;;;;20.10;99.90;;;;;;4826086;29;20038;-92
2021/06/19 02:32:54;;;;;;;1.40;0.95;;;20.20;99.90;;;;;;4807894;29;19932;-91
2021/06/19 02:35:23;;;;;;;3.15;1.45;;;20.10;99.90;;;;;;4809480;29;20045;-93
2021/06/19 02:37:50;;;;;;;2.63;1.30;;;20.10;99.90;;;;;;4809780;29;20663;-92
2021/06/19 02:40:17;;;;;;;3.08;1.42;;;20.10;99.90;;;;;;4810760;29;20046;-93
2021/06/19 02:42:44;;;;;;;1.58;1.05;;;20.10;99.90;;;;;;4810511;29;20046;-92
2021/06/19 02:45:12;;;;;;;2.88;1.20;;;20.10;99.90;;;;;;4810170;29;20557;-91
2021/06/19 02:47:40;;;;;;;3.40;1.50;;;20.10;99.90;;;;;;4824170;29;20049;-92
2021/06/19 02:50:08;;;;;;;1.63;1.52;;;20.10;99.90;;;;;;4809174;29;20045;-91
2021/06/19 02:52:40;;;;;;;2.35;1.35;;;20.10;99.90;;;;;;4823440;29;20034;-85
2021/06/19 02:55:14;;;;;;;4.10;1.83;;;20.00;99.90;;;;;;4800483;29;20042;-85
2021/06/19 02:57:42;;;;;;;2.60;1.40;;;20.10;99.90;;;;;;4814230;29;20042;-86
2021/06/19 03:00:11;;;;;;;2.72;1.90;;;20.10;99.90;;;;;;4833200;29;20092;-85
2021/06/19 03:02:37;;;;;;;2.45;1.80;;;20.20;99.90;;;;;;4819184;29;20056;-85
2021/06/19 03:05:06;;;;;;;1.83;1.38;;;20.20;99.90;;;;;;4796780;29;20049;-86
2021/06/19 03:07:33;;;;;;;2.17;1.50;;;20.30;99.90;;;;;;4817120;29;20054;-85
2021/06/19 03:09:59;;;;;;;3.28;2.05;;;20.40;99.90;;;;;;4814060;29;20053;-84
2021/06/19 03:12:27;;;;;;;2.38;1.55;;;20.50;99.90;;;;;;4819387;29;20531;-85
2021/06/19 03:14:54;;;;;;;2.45;1.80;;;20.50;99.90;;;;;;4834363;29;20058;-85
2021/06/19 03:17:22;;;;;;;2.33;2.03;;;20.60;99.90;;;;;;4803952;29;20045;-85
2021/06/19 03:19:49;;;;;;;2.40;2.10;;;20.70;99.90;;;;;;4802624;29;20109;-85
2021/06/19 03:22:16;;;;;;;3.10;2.28;;;20.70;99.90;;;;;;4819735;29;20050;-91
2021/06/19 03:24:44;;;;;;;3.55;2.90;;;20.80;99.90;;;;;;4817973;29;20042;-92
2021/06/19 03:27:14;;;;;;;2.47;1.73;;;20.80;99.90;;;;;;4827313;29;20156;-92
2021/06/19 03:29:41;;;;;;;2.97;2.05;;;20.80;99.90;;;;;;4826797;29;20045;-93
2021/06/19 03:32:08;;;;;;;3.67;2.13;;;20.90;99.90;;;;;;4826843;29;20490;-91
2021/06/19 03:34:38;;;;;;;1.60;1.48;;;20.90;99.80;;;;;;4811896;29;20038;-91
2021/06/19 03:37:08;;;;;;;3.28;2.58;;;20.90;99.80;;;;;;4825401;29;20041;-94
2021/06/19 03:39:35;;;;;;;3.00;2.42;;;20.90;99.70;;;;;;4817951;29;20048;-84
2021/06/19 03:42:02;;;;;;;2.20;2.00;;;21.00;99.70;;;;;;4804463;29;20069;-86
2021/06/19 03:44:29;;;;;;;4.93;2.95;;;21.00;99.70;;;;;;4805743;29;20052;-86
2021/06/19 03:46:55;;;;;;;3.05;2.53;;;21.00;99.60;;;;;;4794670;29;20383;-86
2021/06/19 03:49:22;;;;;;;2.42;2.22;;;21.00;99.60;;;;;;4805334;29;20046;-86
2021/06/19 03:51:49;;;;;;;3.28;2.42;;;21.10;99.60;;;;;;4807018;29;20061;-85
2021/06/19 03:54:16;;;;;;;4.78;3.35;;;21.10;99.50;;;;;;4806506;29;20042;-85
2021/06/19 03:56:42;;;;;;;4.10;3.70;;;21.10;99.40;;;;;;4805117;29;20378;-85
2021/06/19 03:59:09;;;;;;;3.58;3.25;;;21.10;99.30;;;;;;4805306;29;20386;-88
2021/06/19 04:01:36;;;;;;;4.28;3.75;;;21.10;99.30;;;;;;4834185;29;20054;-88
2021/06/19 04:04:02;;;;;;;4.07;3.67;;;21.10;99.20;;;;;;4806603;29;20046;-84
2021/06/19 04:06:29;;;;;;;3.75;3.20;;;21.10;99.10;;;;;;4790144;29;20042;-88
2021/06/19 04:08:55;;;;;;;5.30;3.20;;;21.20;99.10;;;;;;4834884;29;20061;-88
2021/06/19 04:11:22;;;;;;;4.88;4.20;;;21.20;99.00;;;;;;4793731;29;20041;-89
2021/06/19 04:13:48;;;;;;;5.07;4.68;;;21.30;99.00;;;;;;4807989;29;20049;-86
2021/06/19 04:16:15;;;;;;;4.88;4.38;;;21.30;98.90;;;;;;4805878;29;20568;-87
2021/06/19 04:18:42;;;;;;;4.10;3.75;;;21.30;98.80;;;;;;4815368;29;20038;-87
2021/06/19 04:21:09;;;;;;;6.00;5.00;;;21.30;99.00;;;;;;4802519;29;20600;-85
2021/06/19 04:23:35;;;;;;;7.20;5.60;;;21.40;98.70;;;;;;4817470;29;20046;-87
2021/06/19 04:26:03;;;;;;;5.85;5.35;;;21.30;98.60;;;;;;4818275;29;20042;-85
2021/06/19 04:28:30;;;;;;;5.63;4.35;;;21.40;98.60;;;;;;4801738;29;20050;-88
2021/06/19 04:30:59;;;;;;;6.35;5.00;;;21.40;98.60;;;;;;4805448;29;20042;-87
2021/06/19 04:33:27;;;;;;;5.10;4.70;;;21.40;98.60;;;;;;4819464;29;20406;-87
2021/06/19 04:35:54;;;;;;;5.32;4.82;;;21.40;98.50;;;;;;4814873;29;20038;-87
2021/06/19 04:38:21;;;;;;;5.25;4.78;;;21.40;98.50;;;;;;4803248;29;20054;-87
2021/06/19 04:41:07;;;;;;;5.15;4.75;;;21.40;98.40;;;;;;4816380;29;20065;-82
2021/06/19 04:44:20;;;;;;;4.28;3.92;;;21.50;98.40;;;;;;4800726;29;20556;-83
2021/06/19 04:46:20;;;;;;;4.25;3.85;;;21.50;98.30;;;;;;4812631;29;20787;-86
2021/06/19 04:48:46;;;;;;;5.18;4.38;;;21.60;98.30;;;;;;4816273;29;20045;-85
2021/06/19 04:51:13;;;;;;;4.78;4.35;;;21.60;98.30;;;;;;4805180;29;20543;-86
2021/06/19 04:53:39;;;;;;;4.32;4.03;;;21.60;98.20;;;;;;4789632;29;20060;-83
2021/06/19 04:56:08;;;;;;;5.63;4.85;;;21.70;98.20;;;;;;4801350;29;20046;-83
2021/06/19 04:58:35;;;;;;;4.22;3.83;;;21.80;98.20;;;;;;4815473;29;20049;-85
2021/06/19 05:01:02;;;;;;;4.18;3.47;;;21.80;98.10;;;;;;4801932;29;20497;-86
2021/06/19 05:03:29;;;;;;;3.75;2.70;;;21.80;98.00;;;;;;4805127;29;20046;-84
2021/06/19 05:05:58;;;;;;;3.55;2.47;;;21.80;98.00;;;;;;4820155;29;20062;-84
2021/06/19 05:08:24;;;;;;;2.45;2.25;;;21.80;97.90;;;;;;4814331;29;20557;-84
2021/06/19 05:10:51;;;;;;;3.38;2.67;;;21.80;97.90;;;;;;4786330;29;20050;-83
2021/06/19 05:13:18;;;;;;;2.75;2.15;;;21.80;98.10;;;;;;4805196;29;20133;-84
2021/06/19 05:15:51;;;;;;;3.03;2.80;;;21.80;97.90;;;;;;4788823;29;20046;-88
2021/06/19 05:18:18;;;;;;;4.18;2.38;;;21.80;97.90;;;;;;4830553;29;20052;-86
2021/06/19 05:20:44;;;;;;;3.05;2.85;;;21.90;97.80;;;;;;4817150;29;20554;-85
2021/06/19 05:23:11;;;;;;;3.40;3.08;;;21.90;97.60;;;;;;4803483;29;20050;-85
2021/06/19 05:25:38;;;;;;;3.42;3.13;;;22.00;97.70;;;;;;4801754;29;20046;-87
2021/06/19 05:28:04;;;;;;;6.15;4.35;;;22.00;97.60;;;;;;4815056;29;20378;-85
2021/06/19 05:30:32;;;;;;;2.83;2.55;;;22.10;97.30;;;;;;4831305;29;20049;-83
2021/06/19 05:32:58;;;;;;;3.72;2.95;;;22.10;97.40;;;;;;4816236;29;20057;-87
2021/06/19 05:35:25;;;;;;;3.50;3.15;;;22.20;97.30;;;;;;4820291;29;20076;-87
2021/06/19 05:37:51;;;;;;;3.63;3.33;;;22.20;97.10;;;;;;4818329;29;20585;-87
2021/06/19 05:40:18;;;;;;;3.38;2.85;;;22.20;97.00;;;;;;4804627;29;20033;-86
2021/06/19 05:43:26;;;;;;;3.08;2.80;;;22.20;96.90;;;;;;4812735;29;20061;-95
2021/06/19 05:45:58;;;;;;;4.78;4.25;;;22.10;96.80;;;;;;4794667;29;20042;-95
2021/06/19 05:48:26;;;;;;;4.40;4.00;;;22.10;96.80;;;;;;4824841;29;20042;-96
2021/06/19 05:50:52;;;;;;;6.72;3.50;;;22.20;96.70;;;;;;4811573;29;20492;-95
2021/06/19 05:53:28;;;;;;;3.50;3.20;;;22.40;96.50;;;;;;4812182;29;20054;-96
2021/06/19 05:55:54;;;;;;;4.85;4.32;;;22.50;96.30;;;;;;4825405;29;20506;-93
2021/06/19 05:58:21;;;;;;;4.70;4.30;;;22.60;95.90;;;;;;4813358;29;20497;-95
2021/06/19 06:00:48;;;;;;;3.63;3.33;;;22.60;95.60;;;;;;4801677;29;20039;-93
2021/06/19 06:03:14;;;;;;;3.38;3.08;;;22.60;95.60;;;;;;4802772;29;20421;-89
2021/06/19 06:05:41;;;;;;;3.55;3.15;;;22.60;95.50;;;;;;4802925;29;20042;-88
2021/06/19 06:08:10;;;;;;;4.00;3.60;;;22.50;95.60;;;;;;4778029;29;20038;-88
2021/06/19 06:10:37;;;;;;;4.00;2.97;;;22.50;95.70;;;;;;4788509;29;20060;-88
2021/06/19 06:13:05;;;;;;;2.88;2.67;;;22.40;95.50;;;;;;4805521;29;20046;-88
2021/06/19 06:15:32;;;;;;;6.90;6.30;;;22.40;95.50;;;;;;4792438;29;20053;-93
2021/06/19 06:18:01;;;;;;;7.10;6.40;;;22.40;95.40;;;;;;4812825;29;20038;-93
2021/06/19 06:20:27;;;;;;;8.43;7.63;;;22.30;95.50;;;;;;4819639;29;20046;-86
2021/06/19 06:22:54;;;;;;;9.52;8.25;;;22.30;95.60;;;;;;4821102;29;20050;-86
2021/06/19 06:25:27;;;;;;;8.65;7.45;;;22.30;95.80;;;;;;4801269;29;20040;-87
2021/06/19 06:27:56;;;;;;;10.23;9.13;;;22.30;95.60;;;;;;4804855;29;20061;-87
2021/06/19 06:30:23;;;;;;;11.18;8.95;;;22.30;95.50;;;;;;4826948;29;20046;-92
2021/06/19 06:32:50;;;;;;;10.98;9.43;;;22.40;95.50;;;;;;4825708;29;20046;-91
2021/06/19 06:35:17;;;;;;;10.60;8.98;;;22.50;95.20;;;;;;4824590;29;20030;-87
2021/06/19 06:37:44;;;;;;;16.55;14.77;;;22.50;95.00;;;;;;4818248;29;20057;-87
2021/06/19 06:40:13;;;;;;;14.02;11.80;;;22.50;94.70;;;;;;4818019;29;20046;-86
2021/06/19 06:42:41;;;;;;;16.40;14.02;;;22.50;94.60;;;;;;4835030;29;20062;-90
2021/06/19 06:45:10;;;;;;;18.13;15.35;;;22.50;94.50;;;;;;4806202;29;20038;-89
2021/06/19 06:47:41;;;;;;;18.63;15.63;;;22.50;94.20;;;;;;4792563;29;20050;-90
2021/06/19 06:50:18;;;;;;;17.40;15.60;;;22.60;93.80;;;;;;4808626;29;20049;-95
2021/06/19 06:52:47;;;;;;;19.48;16.23;;;22.60;93.70;;;;;;4805844;29;20058;-88
2021/06/19 06:55:17;;;;;;;16.15;14.45;;;22.70;93.20;;;;;;4819011;29;20053;-85
2021/06/19 06:57:45;;;;;;;14.60;12.75;;;23.00;92.80;;;;;;4818765;29;20049;-88
2021/06/19 07:00:12;;;;;;;12.98;10.77;;;23.20;92.20;;;;;;4791983;29;20042;-88
2021/06/19 07:02:40;;;;;;;16.33;14.38;;;23.30;92.00;;;;;;4806842;29;20049;-88
2021/06/19 07:05:08;;;;;;;18.35;14.30;;;23.40;91.80;;;;;;4804847;29;20044;-86
2021/06/19 07:07:36;;;;;;;15.02;12.52;;;23.60;91.60;;;;;;4815598;29;20062;-88
2021/06/19 07:10:06;;;;;;;11.73;10.48;;;23.80;91.50;;;;;;4804181;29;20056;-88
2021/06/19 07:12:33;;;;;;;15.38;11.77;;;24.10;91.40;;;;;;4819783;29;20497;-88
2021/06/19 07:14:59;;;;;;;14.15;12.15;;;24.50;90.90;;;;;;4810589;29;20037;-89
2021/06/19 07:17:26;;;;;;;12.98;8.48;;;24.70;90.00;;;;;;4792523;29;20046;-89
2021/06/19 07:19:55;;;;;;;11.60;8.90;;;24.70;89.40;;;;;;4804156;29;20049;-88
2021/06/19 07:22:22;;;;;;;9.15;6.82;;;24.60;88.70;;;;;;4820022;29;20042;-85
2021/06/19 07:24:48;;;;;;;8.13;6.70;;;24.60;88.70;;;;;;4835497;29;20058;-84
2021/06/19 07:27:15;;;;;;;9.70;7.50;;;24.60;88.10;;;;;;4802928;29;20069;-84
2021/06/19 07:29:42;;;;;;;8.05;6.65;;;24.70;86.50;;;;;;4800239;29;20046;-84
2021/06/19 07:32:08;;;;;;;8.02;6.80;;;24.60;86.20;;;;;;4835220;29;20058;-84
2021/06/19 07:34:35;;;;;;;9.30;6.20;;;24.60;86.90;;;;;;4789276;29;20040;-84
2021/06/19 07:37:01;;;;;;;7.55;6.20;;;24.60;86.70;;;;;;4816314;29;20046;-85
2021/06/19 07:39:28;;;;;;;9.35;7.88;;;24.60;86.70;;;;;;4791030;29;20411;-84
2021/06/19 07:41:55;;;;;;;7.45;6.28;;;24.50;86.20;;;;;;4802696;29;20058;-84
2021/06/19 07:44:24;;;;;;;9.20;8.07;;;24.50;86.10;;;;;;4831618;29;20049;-84
2021/06/19 07:46:55;;;;;;;7.90;7.03;;;24.60;86.60;;;;;;4819660;29;20057;-84
2021/06/19 07:49:26;;;;;;;7.30;6.60;;;24.90;85.60;;;;;;4785599;29;20058;-84
2021/06/19 07:51:54;;;;;;;8.65;6.60;;;25.20;84.80;;;;;;4817125;29;20525;-84
2021/06/19 07:54:23;;;;;;;7.97;7.18;;;25.40;84.40;;;;;;4803724;29;20033;-84
2021/06/19 07:56:51;;;;;;;6.50;5.47;;;25.60;83.50;;;;;;4803085;29;20054;-84
2021/06/19 07:59:18;;;;;;;8.60;6.55;;;25.60;83.20;;;;;;4786092;29;20516;-84
2021/06/19 08:01:46;;;;;;;6.22;5.63;;;25.60;82.80;;;;;;4818667;29;20489;-84
2021/06/19 08:04:13;;;;;;;8.05;5.72;;;25.60;82.90;;;;;;4830336;29;20816;-84
2021/06/19 08:06:40;;;;;;;9.18;8.23;;;25.50;83.30;;;;;;4831799;29;21267;-85
2021/06/19 08:09:08;;;;;;;11.45;9.07;;;25.50;82.50;;;;;;4801612;29;20438;-84
2021/06/19 08:11:35;;;;;;;7.60;6.80;;;25.40;82.00;;;;;;4822025;29;20050;-84
2021/06/19 08:14:02;;;;;;;10.13;8.43;;;25.40;82.50;;;;;;4787709;29;20050;-84
2021/06/19 08:16:30;;;;;;;9.90;8.90;;;25.40;82.40;;;;;;4803540;29;20402;-82
2021/06/19 08:18:57;;;;;;;9.20;8.30;;;25.40;82.00;;;;;;4830970;29;20298;-82
2021/06/19 08:21:24;;;;;;;9.07;7.68;;;25.40;82.20;;;;;;4817495;29;20052;-79
2021/06/19 08:23:51;;;;;;;9.63;7.75;;;25.40;82.40;;;;;;4830383;29;20050;-78
2021/06/19 08:26:18;;;;;;;10.20;7.90;;;25.50;81.60;;;;;;4832755;29;20259;-77
2021/06/19 08:28:47;;;;;;;8.63;7.72;;;25.60;81.40;;;;;;4817165;29;20050;-78
2021/06/19 08:31:15;;;;;;;9.20;8.27;;;25.70;81.10;;;;;;4833162;29;20057;-80
2021/06/19 08:33:41;;;;;;;10.50;9.40;;;25.90;80.70;;;;;;4832432;29;20050;-78
2021/06/19 08:36:08;;;;;;;8.90;7.60;;;26.10;80.00;;;;;;4831932;29;20079;-79
2021/06/19 08:38:34;;;;;;;11.05;9.57;;;26.20;80.30;;;;;;4828061;29;20037;-78
2021/06/19 08:41:02;;;;;;;12.02;10.32;;;26.20;79.60;;;;;;4828819;29;20038;-78
2021/06/19 08:43:29;;;;;;;14.10;12.57;;;26.20;79.50;;;;;;4802185;29;20053;-78
2021/06/19 08:45:56;;;;;;;11.75;10.55;;;26.20;79.50;;;;;;4828853;29;20498;-78
2021/06/19 08:48:22;;;;;;;11.68;9.35;;;26.20;79.30;;;;;;4826196;29;20042;-79
2021/06/19 08:50:49;;;;;;;11.73;10.52;;;26.30;79.40;;;;;;4832038;29;20505;-78
2021/06/19 08:53:19;;;;;;;11.57;10.18;;;26.30;79.50;;;;;;4813503;29;20057;-78
2021/06/19 08:55:47;;;;;;;14.70;10.20;;;26.40;79.30;;;;;;4817126;29;20049;-78
2021/06/19 08:58:13;;;;;;;17.67;13.65;;;26.30;78.50;;;;;;4814735;29;20060;-78
2021/06/19 09:00:40;;;;;;;10.93;9.63;;;26.20;77.70;;;;;;4831161;29;20049;-79
2021/06/19 09:03:22;;;;;;;9.98;8.98;;;26.10;78.40;;;;;;4833817;29;20042;-79
2021/06/19 09:05:51;;;;;;;7.90;6.70;;;26.10;78.50;;;;;;4830204;29;20050;-79
2021/06/19 09:08:19;;;;;;;9.30;8.30;;;26.10;78.80;;;;;;4828399;29;20072;-79
2021/06/19 09:10:47;;;;;;;8.65;7.20;;;26.20;78.40;;;;;;4814472;29;20050;-79
2021/06/19 09:13:19;;;;;;;7.53;6.82;;;26.40;78.60;;;;;;4830301;29;20049;-79
2021/06/19 09:15:56;;;;;;;5.82;5.18;;;26.40;78.80;;;;;;4803214;29;20046;-79
2021/06/19 09:18:28;;;;;;;7.85;7.05;;;26.50;78.80;;;;;;4817858;29;20046;-78
2021/06/19 09:20:59;;;;;;;7.93;7.13;;;26.40;78.00;;;;;;4832162;29;20806;-79
2021/06/19 09:23:35;;;;;;;8.23;7.43;;;26.30;77.80;;;;;;4816912;29;20054;-80
2021/06/19 09:26:23;;;;;;;9.48;8.48;;;26.20;78.10;;;;;;4831805;29;20046;-79
2021/06/19 09:29:17;;;;;;;38.05;12.57;;;26.10;78.60;;;;;;4828250;29;20064;-79
2021/06/19 09:31:54;;;;;;;17.13;10.65;;;26.20;79.80;;;;;;4829527;29;20088;-78
2021/06/19 09:34:26;;;;;;;34.70;13.80;;;26.20;78.70;;;;;;4832009;29;20100;-78
2021/06/19 09:37:05;;;;;;;30.55;17.63;;;26.00;79.40;;;;;;4830166;29;20042;-78
2021/06/19 09:39:35;;;;;;;15.07;10.18;;;25.90;83.70;;;;;;4826838;29;20409;-85
2021/06/19 09:42:03;;;;;;;10.77;9.68;;;25.40;83.90;;;;;;4833624;29;20525;-83
2021/06/19 09:44:39;;;;;;;16.13;9.95;;;25.30;83.60;;;;;;4833416;29;20405;-87
2021/06/19 09:47:06;;;;;;;10.27;8.40;;;25.50;83.50;;;;;;4818345;29;20577;-87
2021/06/19 09:49:44;;;;;;;12.05;9.63;;;25.90;83.30;;;;;;4805704;29;20057;-83
2021/06/19 09:52:11;;;;;;;8.82;8.02;;;26.20;81.40;;;;;;4832820;29;20524;-84
2021/06/19 09:54:40;;;;;;;9.52;8.63;;;26.40;80.70;;;;;;4789100;29;20046;-83
2021/06/19 09:57:12;;;;;;;7.55;6.85;;;26.70;80.20;;;;;;4807404;29;20034;-83
2021/06/19 09:59:39;;;;;;;9.60;8.60;;;26.80;79.50;;;;;;4831269;29;20831;-83
2021/06/19 10:02:17;;;;;;;8.77;7.90;;;26.80;79.80;;;;;;4818829;29;20403;-81
2021/06/19 10:04:50;;;;;;;12.23;11.02;;;26.90;79.50;;;;;;4832188;29;20054;-82
2021/06/19 10:07:18;;;;;;;11.25;9.55;;;27.00;78.60;;;;;;4834369;29;20037;-82
2021/06/19 10:09:50;;;;;;;11.85;10.52;;;27.10;78.80;;;;;;4834723;29;20489;-83
2021/06/19 10:12:25;;;;;;;14.35;9.63;;;27.20;77.70;;;;;;4835435;29;20049;-83
2021/06/19 10:14:57;;;;;;;11.27;8.43;;;27.10;76.70;;;;;;4820531;29;20060;-83
2021/06/19 10:17:33;;;;;;;21.50;13.57;;;26.80;77.60;;;;;;4820657;29;20048;-82
2021/06/19 10:20:01;;;;;;;10.82;9.70;;;26.80;78.70;;;;;;4832239;29;20040;-82
2021/06/19 10:22:29;;;;;;;10.05;8.77;;;26.80;78.80;;;;;;4834544;29;20042;-81
2021/06/19 10:25:00;;;;;;;8.02;7.05;;;27.00;78.00;;;;;;4832826;29;20826;-81
2021/06/19 10:27:30;;;;;;;8.68;7.18;;;27.30;78.20;;;;;;4803106;29;20561;-83
2021/06/19 10:29:58;;;;;;;9.90;8.90;;;27.50;76.70;;;;;;4818339;29;20050;-83
2021/06/19 10:32:47;;;;;;;9.75;8.10;;;27.60;75.70;;;;;;4834878;29;20049;-83
2021/06/19 10:35:18;;;;;;;7.25;6.40;;;27.70;75.60;;;;;;4818740;29;20050;-83
2021/06/19 10:37:47;;;;;;;7.05;6.40;;;28.00;75.50;;;;;;4833619;29;20054;-84
2021/06/19 10:40:28;;;;;;;6.95;6.30;;;28.50;75.20;;;;;;4802902;29;20046;-80
2021/06/19 10:43:21;;;;;;;10.52;7.53;;;28.90;74.10;;;;;;4781804;29;20415;-82
2021/06/19 10:45:48;;;;;;;7.20;6.50;;;29.30;73.80;;;;;;4781550;29;20055;-80
2021/06/19 10:48:17;;;;;;;7.25;5.70;;;29.70;71.50;;;;;;4781006;29;20403;-80
2021/06/19 10:50:47;;;;;;;5.35;4.78;;;29.70;69.80;;;;;;4796508;29;20038;-81
2021/06/19 10:53:15;;;;;;;6.32;5.72;;;29.80;71.00;;;;;;4780566;29;20050;-80
2021/06/19 10:55:49;;;;;;;8.65;5.57;;;30.10;70.50;;;;;;4796057;29;20049;-81
2021/06/19 10:58:17;;;;;;;10.65;7.43;;;30.30;69.20;;;;;;4767353;29;20050;-80
2021/06/19 11:00:55;;;;;;;29.83;26.95;;;30.20;68.20;;;;;;4797738;29;20038;-84
2021/06/19 11:03:58;;;;;;;10.60;7.57;;;30.20;67.90;;;;;;4796305;29;20055;-83
2021/06/19 11:06:38;;;;;;;12.40;7.63;;;30.30;67.60;;;;;;4797610;29;20059;-83
2021/06/19 11:09:17;;;;;;;8.50;7.60;;;30.30;67.20;;;;;;4794285;29;20419;-83
2021/06/19 11:12:02;;;;;;;13.68;8.98;;;30.10;67.40;;;;;;4795902;29;20046;-84
2021/06/19 11:14:42;;;;;;;11.25;8.30;;;30.00;66.80;;;;;;4795625;29;20614;-83
2021/06/19 11:17:15;;;;;;;10.52;8.88;;;30.20;66.30;;;;;;4782732;29;20502;-83
2021/06/19 11:19:47;;;;;;;8.35;7.45;;;30.30;65.80;;;;;;4782608;29;20043;-83
2021/06/19 11:22:52;;;;;;;7.63;6.82;;;30.60;66.10;;;;;;4796360;29;20047;-84
2021/06/19 11:25:54;;;;;;;14.95;11.10;;;31.10;65.20;;;;;;4796797;29;20043;-83
2021/06/19 11:28:20;;;;;;;11.43;8.02;;;31.40;64.90;;;;;;4798453;29;20065;-82
2021/06/19 11:30:54;;;;;;;11.63;8.23;;;31.80;64.40;;;;;;4783439;29;20058;-82
2021/06/19 11:33:24;;;;;;;16.08;10.05;;;31.90;62.80;;;;;;4796771;29;20043;-82
2021/06/19 11:35:58;;;;;;;16.77;11.20;;;31.60;62.60;;;;;;4796749;29;20404;-79
2021/06/19 11:38:42;;;;;;;7.60;6.85;;;31.30;63.20;;;;;;4796598;29;20047;-81
2021/06/19 11:41:15;;;;;;;10.50;7.53;;;31.20;63.20;;;;;;4796600;29;20042;-80
2021/06/19 11:43:43;;;;;;;9.45;8.68;;;31.10;62.70;;;;;;4820865;29;20041;-81
2021/06/19 11:46:10;;;;;;;8.35;7.40;;;31.00;62.90;;;;;;4835771;29;20068;-81
2021/06/19 11:48:51;;;;;;;8.90;7.72;;;31.00;63.10;;;;;;4820440;29;20041;-85
2021/06/19 11:51:20;;;;;;;18.13;7.53;;;30.80;62.30;;;;;;4837314;29;20612;-82
2021/06/19 11:53:47;;;;;;;11.48;8.18;;;30.60;62.60;;;;;;4834568;29;20402;-80
2021/06/19 11:56:15;;;;;;;9.82;8.82;;;30.50;63.00;;;;;;4836336;29;20421;-83
2021/06/19 11:58:55;;;;;;;10.20;9.10;;;30.40;63.20;;;;;;4835058;29;20505;-81
2021/06/19 12:01:38;;;;;;;12.40;8.48;;;30.30;63.20;;;;;;4834883;29;20046;-77
2021/06/19 12:04:08;;;;;;;10.32;9.40;;;30.30;63.70;;;;;;4819354;29;20060;-81
2021/06/19 12:06:40;;;;;;;11.43;10.18;;;30.20;63.40;;;;;;4809846;29;20446;-81
2021/06/19 12:09:09;;;;;;;11.32;9.60;;;30.00;63.20;;;;;;4819733;29;20044;-83
2021/06/19 12:11:39;;;;;;;11.13;10.13;;;29.90;63.60;;;;;;4835397;29;20046;-82
2021/06/19 12:14:19;;;;;;;10.70;9.30;;;29.70;64.00;;;;;;4819318;29;20057;-82
2021/06/19 12:16:49;;;;;;;14.05;12.75;;;29.60;64.10;;;;;;4805831;29;20042;-80
2021/06/19 12:19:17;;;;;;;10.73;9.63;;;29.60;64.20;;;;;;4790549;29;20049;-81
2021/06/19 12:21:44;;;;;;;10.27;9.27;;;29.80;64.00;;;;;;4834975;29;20050;-82
2021/06/19 12:24:29;;;;;;;10.10;9.30;;;30.10;63.60;;;;;;4803495;29;20046;-81
2021/06/19 12:27:19;;;;;;;11.55;10.55;;;30.10;62.80;;;;;;4834969;29;20049;-81
2021/06/19 12:29:48;;;;;;;11.77;9.70;;;29.80;62.50;;;;;;4834170;29;20057;-79
2021/06/19 12:32:36;;;;;;;11.07;10.13;;;29.50;63.00;;;;;;4836182;29;20068;-81
2021/06/19 12:35:04;;;;;;;9.82;7.50;;;29.40;63.10;;;;;;4820453;29;20049;-80
2021/06/19 12:37:40;;;;;;;10.55;9.60;;;29.40;63.20;;;;;;4835966;29;20045;-79
2021/06/19 12:40:12;;;;;;;13.13;12.00;;;29.30;63.30;;;;;;4834575;29;20058;-79
2021/06/19 12:42:50;;;;;;;10.20;9.20;;;29.10;63.10;;;;;;4836346;29;20478;-80
2021/06/19 12:45:19;;;;;;;9.70;8.70;;;28.80;63.80;;;;;;4817931;29;20046;-78
2021/06/19 12:47:47;;;;;;;9.60;8.70;;;28.50;64.90;;;;;;4819114;29;20042;-80
2021/06/19 12:50:20;;;;;;;9.70;8.80;;;28.40;65.20;;;;;;4835529;29;20054;-80
2021/06/19 12:53:11;;;;;;;8.65;7.97;;;28.40;65.40;;;;;;4819922;29;20037;-80
2021/06/19 12:55:43;;;;;;;8.90;8.10;;;28.50;65.40;;;;;;4818837;29;20050;-80
2021/06/19 12:58:14;;;;;;;10.15;9.20;;;28.60;65.10;;;;;;4835511;29;20046;-80
2021/06/19 13:00:53;;;;;;;7.47;6.80;;;28.80;64.20;;;;;;4833917;29;20060;-79